Terminal Aerodrome Forecast
Issued by NWS Louisville, KY

Home | Current Version | Previous Version | Text Only | Print | Product List | Glossary On
Versions: 1 2 3 4 5 6 7 8 9 10 11 12 13 14 15 16 17
000
FTUS43 KLMK 240956 AAA
TAFBWG
TAF AMD
KBWG 240956Z 2410/2506 02005KT P6SM BKN012
     FM241500 02006KT P6SM BKN025
     FM241700 04008KT P6SM BKN035=

USA.gov is the U.S. government's official web portal to all federal, state and local government web resources and services.